Time;durP1;ratioP1;P1;durP2;ratioP2;P2;SDS_P1;SDS_P2;PMS_P1;PMS_P2;Temp;Humidity;BMP_temperature;BMP_pressure;BME280_temperature;BME280_humidity;BME280_pressure;Samples;Min_cycle;Max_cycle;Signal;HPM_P1;HPM_P2
2022/04/22 00:00:05;;;;;;;21.60;19.40;;;;;;;16.08;53.68;100903.44;5172535;27;20414;-60
2022/04/22 00:02:32;;;;;;;21.38;19.27;;;;;;;16.09;54.09;100904.25;5167710;27;20467;-59
2022/04/22 00:04:59;;;;;;;19.63;17.63;;;;;;;16.07;53.94;100904.47;5177224;27;20899;-60
2022/04/22 00:07:28;;;;;;;20.98;19.08;;;;;;;16.08;54.05;100899.94;5189406;27;20413;-59
2022/04/22 00:09:55;;;;;;;22.13;20.02;;;;;;;16.02;54.40;100906.91;5173429;27;20420;-60
2022/04/22 00:12:22;;;;;;;20.00;18.15;;;;;;;15.72;54.32;100901.84;5185821;27;20838;-59
2022/04/22 00:14:50;;;;;;;23.20;20.88;;;;;;;15.61;55.19;100884.53;5175736;27;20448;-59
2022/04/22 00:17:17;;;;;;;22.77;20.43;;;;;;;15.67;55.60;100886.41;5187582;27;20505;-60
2022/04/22 00:20:16;;;;;;;24.38;21.98;;;;;;;15.71;56.72;100883.34;5098806;27;20408;-60
2022/04/22 00:22:44;;;;;;;23.95;21.65;;;;;;;15.81;56.92;100881.13;5066220;28;20419;-60
2022/04/22 00:25:13;;;;;;;23.08;20.80;;;;;;;15.79;57.19;100878.69;5066082;28;20793;-60
2022/04/22 00:27:42;;;;;;;24.85;22.40;;;;;;;15.73;57.61;100882.09;5066389;28;20917;-60
2022/04/22 00:32:40;;;;;;;23.25;21.05;;;;;;;15.69;58.02;100872.84;5113092;27;20488;-61
2022/04/22 00:35:08;;;;;;;24.17;21.88;;;;;;;15.66;58.58;100875.91;5057661;28;20424;-60
2022/04/22 00:37:35;;;;;;;24.65;22.38;;;;;;;15.71;58.33;100869.97;5059269;28;20420;-60
2022/04/22 00:40:02;;;;;;;23.52;21.40;;;;;;;15.73;57.30;100863.41;5050301;28;20831;-60
2022/04/22 00:42:29;;;;;;;23.30;21.10;;;;;;;15.72;57.66;100866.25;5062841;28;20484;-60
2022/04/22 00:44:57;;;;;;;24.92;22.58;;;;;;;15.60;57.48;100863.34;5049807;28;20495;-60
2022/04/22 00:47:24;;;;;;;24.25;22.02;;;;;;;15.59;57.41;100862.53;5055747;28;20426;-60
2022/04/22 00:49:53;;;;;;;23.75;21.65;;;;;;;15.63;56.34;100866.44;5060797;28;20865;-60
2022/04/22 00:52:21;;;;;;;25.90;23.60;;;;;;;15.67;56.56;100859.69;5049351;28;20429;-60
2022/04/22 00:54:49;;;;;;;29.38;26.52;;;;;;;15.62;57.42;100862.13;5060717;28;20445;-60
2022/04/22 00:59:16;;;;;;;30.08;27.25;;;;;;;15.67;57.96;100866.88;5088914;27;20419;-58
2022/04/22 01:01:43;;;;;;;27.80;25.20;;;;;;;15.71;58.19;100870.78;5060747;28;20458;-58
2022/04/22 01:10:36;;;;;;;31.88;28.60;;;;;;;15.53;57.29;100855.31;5085356;27;20399;-59
2022/04/22 01:13:03;;;;;;;34.77;31.30;;;;;;;15.53;57.05;100849.97;5066239;28;20412;-60
2022/04/22 01:15:30;;;;;;;30.58;27.65;;;;;;;15.45;57.08;100842.94;5055031;28;20460;-59
2022/04/22 01:17:58;;;;;;;29.90;27.20;;;;;;;15.48;58.09;100842.56;5048466;28;20453;-60
2022/04/22 01:20:25;;;;;;;28.73;26.23;;;;;;;15.51;58.52;100832.50;5059702;28;20428;-60
2022/04/22 01:22:53;;;;;;;29.10;26.40;;;;;;;15.36;58.12;100795.22;5058656;28;20466;-59
2022/04/22 01:25:20;;;;;;;28.08;25.58;;;;;;;14.74;60.46;100740.94;5064323;28;20443;-59
2022/04/22 01:27:51;;;;;;;29.10;26.40;;;;;;;14.55;60.80;100735.25;5062945;28;20416;-59
2022/04/22 01:30:21;;;;;;;30.13;27.33;;;;;;;14.72;60.57;100765.13;5061199;28;20459;-59
2022/04/22 01:32:50;;;;;;;29.90;27.00;;;;;;;15.02;59.89;100792.41;5064536;28;20443;-59
2022/04/22 01:35:17;;;;;;;28.42;25.70;;;;;;;15.19;59.30;100803.56;5062006;28;20419;-59
2022/04/22 01:37:44;;;;;;;27.30;24.70;;;;;;;15.18;58.32;100807.28;5061862;28;20438;-59
2022/04/22 01:40:14;;;;;;;28.30;25.60;;;;;;;15.21;58.75;100801.53;5060612;28;20584;-59
2022/04/22 01:42:41;;;;;;;29.48;26.58;;;;;;;15.26;58.77;100796.41;5057569;28;20503;-59
2022/04/22 01:45:10;;;;;;;29.52;26.65;;;;;;;15.26;59.49;100793.75;5061527;28;20901;-59
2022/04/22 01:47:37;;;;;;;27.23;24.73;;;;;;;15.14;59.33;100784.66;5056200;28;20836;-59
2022/04/22 01:50:05;;;;;;;23.40;21.30;;;;;;;14.88;59.87;100770.16;5054668;28;20463;-59
2022/04/22 01:52:32;;;;;;;24.13;21.98;;;;;;;14.87;59.81;100765.00;5058517;28;20440;-59
2022/04/22 01:54:59;;;;;;;22.70;20.70;;;;;;;14.90;59.69;100768.09;5061804;28;20873;-59
2022/04/22 01:57:27;;;;;;;20.48;18.77;;;;;;;14.99;58.94;100768.78;5060210;28;20419;-60
2022/04/22 01:59:55;;;;;;;20.65;18.75;;;;;;;14.92;58.76;100775.91;5061668;28;20418;-59
2022/04/22 02:02:22;;;;;;;21.92;20.02;;;;;;;14.98;58.73;100780.50;5055612;28;20433;-59
2022/04/22 02:04:49;;;;;;;23.70;21.48;;;;;;;15.07;59.39;100795.31;5061029;28;20461;-60
2022/04/22 02:07:16;;;;;;;22.67;20.67;;;;;;;15.06;59.56;100801.66;5061778;28;20848;-59
2022/04/22 02:09:43;;;;;;;22.95;20.85;;;;;;;15.10;59.93;100810.09;5060715;28;20923;-60
2022/04/22 02:12:11;;;;;;;24.65;22.50;;;;;;;15.13;60.01;100803.56;5060946;28;20796;-59
2022/04/22 02:21:04;;;;;;;28.05;25.42;;;;;;;15.10;60.32;100799.44;5087871;27;20408;-59
2022/04/22 02:23:31;;;;;;;27.38;24.88;;;;;;;15.13;60.26;100793.69;5063315;28;20423;-58
2022/04/22 02:25:59;;;;;;;27.45;25.05;;;;;;;15.14;60.08;100795.31;5063324;28;20451;-59
2022/04/22 02:28:35;;;;;;;26.80;24.40;;;;;;;15.16;60.19;100797.81;5061257;28;21556;-58
2022/04/22 02:31:04;;;;;;;26.25;23.85;;;;;;;15.17;60.13;100802.94;5056657;28;20423;-60
2022/04/22 02:33:31;;;;;;;27.63;25.25;;;;;;;15.09;60.27;100801.28;5052674;28;20454;-58
2022/04/22 02:35:59;;;;;;;43.45;39.33;;;;;;;15.04;60.30;100794.88;5049838;28;20419;-59
2022/04/22 02:38:28;;;;;;;32.50;29.60;;;;;;;15.04;60.28;100789.53;5064923;28;20482;-59
2022/04/22 02:46:25;;;;;;;33.33;30.53;;;;;;;14.93;60.71;100780.25;5054107;28;20489;-59
2022/04/22 02:52:38;;;;;;;31.05;28.10;;;;;;;15.01;60.39;100776.59;5094676;27;20400;-59
2022/04/22 02:55:30;;;;;;;29.95;27.27;;;;;;;15.02;60.60;100786.25;5082055;27;20791;-60
2022/04/22 02:57:57;;;;;;;29.40;26.70;;;;;;;14.91;60.71;100792.97;5045471;28;20450;-59
2022/04/22 03:00:25;;;;;;;32.63;29.73;;;;;;;15.00;60.97;100796.28;5044836;28;20914;-59
2022/04/22 03:02:52;;;;;;;35.85;32.85;;;;;;;14.99;60.62;100794.66;5045332;28;20504;-59
2022/04/22 03:05:19;;;;;;;32.10;29.30;;;;;;;14.98;60.60;100793.84;5045645;28;20417;-59
2022/04/22 03:07:46;;;;;;;31.67;28.95;;;;;;;14.96;60.43;100784.34;5045559;28;20447;-59
2022/04/22 03:10:13;;;;;;;31.00;28.20;;;;;;;14.97;60.89;100780.69;5045415;28;20514;-59
2022/04/22 03:12:59;;;;;;;32.17;29.27;;;;;;;14.96;60.77;100793.19;5087679;27;20398;-59
2022/04/22 03:15:27;;;;;;;31.00;28.13;;;;;;;15.00;60.62;100788.28;5061555;28;20493;-59
2022/04/22 03:17:54;;;;;;;29.63;27.13;;;;;;;14.97;60.70;100791.34;5061731;28;20949;-58
2022/04/22 03:20:21;;;;;;;29.88;27.27;;;;;;;14.99;60.97;100792.78;5057391;28;20810;-60
2022/04/22 03:22:48;;;;;;;29.50;26.70;;;;;;;15.01;60.31;100796.09;5061067;28;20489;-59
2022/04/22 03:25:16;;;;;;;30.40;27.73;;;;;;;14.98;60.75;100790.31;5062014;28;20439;-59
2022/04/22 03:27:43;;;;;;;29.17;26.58;;;;;;;14.70;61.26;100792.00;5061547;28;20419;-59
2022/04/22 03:30:12;;;;;;;29.00;26.50;;;;;;;14.66;61.22;100795.28;5061470;28;20424;-59
2022/04/22 03:32:39;;;;;;;29.77;27.15;;;;;;;14.64;61.03;100789.28;5056303;28;20538;-59
2022/04/22 03:35:08;;;;;;;32.15;29.10;;;;;;;14.36;62.07;100771.41;5055915;28;20470;-60
2022/04/22 03:37:35;;;;;;;31.45;28.58;;;;;;;14.14;62.98;100767.97;5060857;28;20494;-59
2022/04/22 03:40:02;;;;;;;30.80;28.00;;;;;;;14.11;63.11;100776.34;5059797;28;20427;-60
2022/04/22 03:42:29;;;;;;;31.67;28.77;;;;;;;14.08;63.53;100784.72;5060528;28;20418;-59
2022/04/22 03:44:57;;;;;;;30.90;28.13;;;;;;;14.24;62.78;100799.63;5065258;28;20452;-60
2022/04/22 03:47:25;;;;;;;30.80;28.13;;;;;;;14.32;62.49;100807.50;5063355;28;20499;-59
2022/04/22 03:49:52;;;;;;;31.65;28.88;;;;;;;14.47;62.04;100816.22;5065148;28;20412;-59
2022/04/22 03:52:19;;;;;;;30.67;28.00;;;;;;;14.50;61.93;100807.84;5065356;28;20510;-59
2022/04/22 03:54:47;;;;;;;31.92;29.02;;;;;;;14.58;61.83;100816.75;5065117;28;20494;-59
2022/04/22 03:59:58;;;;;;;32.20;29.40;;;;;;;14.68;61.58;100817.25;5059710;28;20422;-59
2022/04/22 04:02:28;;;;;;;32.03;29.02;;;;;;;14.58;61.83;100828.25;5053394;28;20454;-59
2022/04/22 04:04:55;;;;;;;31.25;28.38;;;;;;;14.58;61.31;100817.56;5055135;28;20907;-59
2022/04/22 04:07:22;;;;;;;29.42;26.83;;;;;;;14.36;62.20;100814.09;5058859;28;20920;-58
2022/04/22 04:18:04;;;;;;;27.83;25.30;;;;;;;13.80;63.47;100766.00;5056849;28;20446;-59
2022/04/22 04:23:15;;;;;;;27.17;24.67;;;;;;;13.73;63.99;100777.41;5052250;28;20640;-59
2022/04/22 04:25:43;;;;;;;27.20;24.80;;;;;;;13.78;63.57;100787.50;5046635;28;20453;-59
2022/04/22 04:28:10;;;;;;;28.95;26.25;;;;;;;14.03;63.34;100792.47;5050356;28;20810;-60
2022/04/22 04:30:38;;;;;;;29.38;26.77;;;;;;;14.13;62.80;100780.47;5050321;28;20417;-59
2022/04/22 04:33:07;;;;;;;26.92;24.52;;;;;;;13.95;62.83;100772.94;5049166;28;20428;-60
2022/04/22 04:35:35;;;;;;;28.45;25.85;;;;;;;14.04;62.69;100783.44;5049129;28;20923;-59
2022/04/22 04:38:02;;;;;;;26.58;24.23;;;;;;;13.89;62.48;100778.19;5051518;28;20786;-59
2022/04/22 04:40:30;;;;;;;26.00;23.70;;;;;;;13.66;63.59;100771.19;5051336;28;20836;-59
2022/04/22 04:42:57;;;;;;;25.50;23.30;;;;;;;13.64;63.82;100757.25;5051842;28;20515;-59
2022/04/22 04:45:24;;;;;;;26.23;23.88;;;;;;;13.70;64.14;100764.50;5051768;28;20423;-59
2022/04/22 04:47:51;;;;;;;25.58;23.27;;;;;;;13.69;63.55;100752.16;5052099;28;20417;-59
2022/04/22 04:50:19;;;;;;;25.08;22.77;;;;;;;13.50;64.00;100734.97;5051671;28;20411;-59
2022/04/22 04:52:46;;;;;;;25.73;23.27;;;;;;;13.29;64.58;100743.72;5051539;28;20994;-57
2022/04/22 04:55:14;;;;;;;26.08;23.77;;;;;;;13.33;64.59;100752.19;5051862;28;20419;-59
2022/04/22 04:57:42;;;;;;;24.88;22.58;;;;;;;13.29;64.34;100746.38;5051817;28;20408;-58
2022/04/22 05:00:11;;;;;;;24.73;22.45;;;;;;;13.23;64.56;100741.78;5051457;28;20929;-59
2022/04/22 05:02:39;;;;;;;23.92;21.83;;;;;;;13.38;64.11;100731.97;5051497;28;20837;-59
2022/04/22 05:05:09;;;;;;;22.80;20.70;;;;;;;13.35;64.15;100736.84;5051740;28;20451;-59
2022/04/22 05:07:48;;;;;;;24.10;21.88;;;;;;;13.41;63.97;100740.59;5051409;28;20499;-61
2022/04/22 05:12:35;;;;;;;22.88;20.88;;;;;;;13.59;63.22;100764.97;5099894;27;20407;-58
2022/04/22 05:15:03;;;;;;;23.48;21.38;;;;;;;13.62;62.95;100753.13;5066758;28;20423;-68
2022/04/22 05:17:30;;;;;;;22.75;20.65;;;;;;;13.57;62.79;100743.84;5066434;28;20921;-62
2022/04/22 05:19:57;;;;;;;24.65;22.35;;;;;;;13.59;63.12;100730.34;5066433;28;20501;-62
2022/04/22 05:22:24;;;;;;;24.67;22.50;;;;;;;13.57;62.97;100732.38;5066099;28;20420;-62
2022/04/22 05:24:51;;;;;;;24.33;22.13;;;;;;;13.64;62.81;100724.47;5064742;28;20516;-63
2022/04/22 05:27:18;;;;;;;23.23;21.13;;;;;;;13.36;63.22;100717.19;5064524;28;20411;-63
2022/04/22 05:32:40;;;;;;;23.15;20.95;;;;;;;13.51;63.42;100715.31;5048852;28;20431;-62
2022/04/22 05:35:09;;;;;;;23.40;21.30;;;;;;;13.52;62.71;100711.66;5047534;28;20422;-61
2022/04/22 05:37:44;;;;;;;21.27;19.27;;;;;;;13.56;62.76;100720.09;5052100;28;20431;-62
2022/04/22 05:40:12;;;;;;;22.10;20.08;;;;;;;13.66;62.39;100715.25;5051360;28;20418;-62
2022/04/22 05:42:39;;;;;;;23.45;21.15;;;;;;;13.49;62.70;100721.84;5054189;28;20836;-61
2022/04/22 05:45:09;;;;;;;21.88;19.88;;;;;;;13.39;63.01;100714.97;5052188;28;20416;-62
2022/04/22 05:47:38;;;;;;;23.10;20.95;;;;;;;13.41;62.78;100724.63;5052866;28;20503;-62
2022/04/22 05:50:06;;;;;;;22.92;20.80;;;;;;;13.66;62.37;100728.56;5060578;28;20419;-63
2022/04/22 05:52:34;;;;;;;22.83;20.73;;;;;;;13.74;62.44;100736.44;5059330;28;20432;-62
2022/04/22 05:55:03;;;;;;;22.08;20.00;;;;;;;13.79;62.46;100719.88;5060473;28;20420;-61
2022/04/22 05:57:31;;;;;;;22.13;20.02;;;;;;;13.77;62.05;100722.75;5054961;28;20420;-63
2022/04/22 05:59:58;;;;;;;21.65;19.67;;;;;;;13.80;61.66;100708.22;5051779;28;20422;-62
2022/04/22 06:02:27;;;;;;;20.85;19.05;;;;;;;13.58;62.47;100718.06;5050613;28;20507;-61
2022/04/22 06:04:54;;;;;;;20.25;18.45;;;;;;;13.71;62.22;100722.69;5050292;28;20411;-62
2022/04/22 06:07:21;;;;;;;21.48;19.60;;;;;;;13.99;61.80;100721.91;5056378;28;20418;-62
2022/04/22 06:12:33;;;;;;;20.13;18.23;;;;;;;13.77;62.01;100719.25;5060742;28;20427;-62
2022/04/22 06:15:02;;;;;;;19.38;17.58;;;;;;;13.64;62.54;100700.47;5062963;28;20412;-62
2022/04/22 06:17:30;;;;;;;17.27;15.67;;;;;;;13.53;62.60;100697.31;5060662;28;20419;-62
2022/04/22 06:19:58;;;;;;;17.33;15.82;;;;;;;13.46;62.60;100696.41;5061156;28;20480;-63
2022/04/22 06:22:26;;;;;;;16.70;15.20;;;;;;;13.25;62.52;100694.50;5054486;28;20456;-62
2022/04/22 06:26:18;;;;;;;16.92;15.43;;;;;;;13.41;61.86;100690.00;5096947;27;20415;-64
2022/04/22 06:28:45;;;;;;;16.55;14.85;;;;;;;13.20;62.27;100689.78;5063833;28;20440;-62
2022/04/22 06:31:12;;;;;;;16.98;15.27;;;;;;;13.42;61.49;100687.16;5064423;28;20455;-62
2022/04/22 06:33:40;;;;;;;17.13;15.52;;;;;;;13.35;61.69;100694.25;5065716;28;20907;-61
2022/04/22 06:36:13;;;;;;;16.50;15.00;;;;;;;13.28;61.52;100688.81;5064513;28;20455;-64
2022/04/22 06:38:41;;;;;;;16.77;15.17;;;;;;;13.29;61.45;100695.81;5065330;28;20797;-64
2022/04/22 06:46:39;;;;;;;16.48;14.90;;;;;;;13.18;61.06;100686.47;5065653;28;20465;-64
2022/04/22 06:49:34;;;;;;;15.52;14.13;;;;;;;13.38;60.96;100693.88;5096003;27;20486;-64
2022/04/22 06:52:01;;;;;;;14.88;13.48;;;;;;;13.60;59.61;100699.22;5052075;28;20437;-61
2022/04/22 06:54:29;;;;;;;13.80;12.50;;;;;;;13.80;59.18;100680.75;5044899;28;20405;-63
2022/04/22 06:56:57;;;;;;;12.10;10.90;;;;;;;14.45;56.76;100690.25;5054902;28;20412;-65
2022/04/22 06:59:24;;;;;;;11.88;10.88;;;;;;;14.97;56.01;100689.94;5043937;28;20449;-64
2022/04/22 07:01:51;;;;;;;12.15;10.95;;;;;;;15.61;54.91;100683.28;5044865;28;20417;-64
2022/04/22 07:04:19;;;;;;;11.95;10.88;;;;;;;16.13;53.43;100683.53;5045025;28;20414;-65
2022/04/22 07:06:48;;;;;;;11.40;10.30;;;;;;;16.36;52.25;100683.91;5045292;28;20803;-66
2022/04/22 07:09:16;;;;;;;11.60;10.50;;;;;;;16.81;52.00;100699.22;5045805;28;20465;-63
2022/04/22 07:11:45;;;;;;;10.97;9.90;;;;;;;17.17;50.52;100697.88;5063771;28;20415;-65
2022/04/22 07:14:13;;;;;;;12.23;10.98;;;;;;;17.68;48.99;100707.69;5043747;28;20594;-67
2022/04/22 07:16:44;;;;;;;11.33;10.13;;;;;;;17.80;48.91;100697.06;5044329;28;20410;-66
2022/04/22 07:19:12;;;;;;;10.63;9.63;;;;;;;17.71;48.45;100685.78;5058025;28;20418;-63
2022/04/22 07:21:39;;;;;;;11.77;10.67;;;;;;;17.72;48.03;100689.28;5056902;28;20515;-62
2022/04/22 07:25:19;;;;;;;10.75;9.75;;;;;;;17.88;48.58;100699.50;5088301;27;20401;-62
2022/04/22 07:27:47;;;;;;;10.70;9.70;;;;;;;17.43;49.18;100698.75;5055103;28;20420;-62
2022/04/22 07:30:15;;;;;;;11.43;10.23;;;;;;;17.26;49.37;100685.06;5067018;28;20438;-61
2022/04/22 07:32:46;;;;;;;13.70;12.40;;;;;;;17.69;49.39;100687.03;5066404;28;20420;-62
2022/04/22 07:35:14;;;;;;;10.15;9.18;;;;;;;17.55;49.46;100681.75;5065621;28;20418;-62
2022/04/22 07:37:42;;;;;;;10.47;9.57;;;;;;;17.09;50.71;100672.16;5065650;28;20415;-61
2022/04/22 07:40:10;;;;;;;10.97;9.87;;;;;;;17.76;49.66;100677.91;5065194;28;20414;-63
2022/04/22 07:42:42;;;;;;;11.67;10.47;;;;;;;17.64;50.73;100679.63;5064855;28;21113;-62
2022/04/22 07:47:54;;;;;;;12.77;10.13;;;;;;;18.05;49.10;100664.09;5064945;28;20415;-62
2022/04/22 07:50:22;;;;;;;11.40;10.25;;;;;;;17.75;49.89;100680.78;5064495;28;20414;-62
2022/04/22 07:52:49;;;;;;;10.60;9.60;;;;;;;17.77;50.06;100694.81;5063977;28;20926;-62
2022/04/22 07:55:16;;;;;;;11.35;10.05;;;;;;;17.62;50.26;100691.63;5064310;28;20422;-61
2022/04/22 07:57:46;;;;;;;10.38;9.38;;;;;;;17.73;50.80;100685.56;5064359;28;20909;-63
2022/04/22 08:00:14;;;;;;;11.32;10.23;;;;;;;17.48;50.83;100672.13;5064316;28;20400;-61
2022/04/22 08:02:42;;;;;;;11.30;10.10;;;;;;;17.43;51.11;100674.63;5064683;28;20443;-62
2022/04/22 08:05:11;;;;;;;10.75;9.40;;;;;;;17.89;50.59;100655.53;5064863;28;20485;-62
2022/04/22 08:07:39;;;;;;;10.32;9.32;;;;;;;17.55;51.90;100646.91;5065202;28;20415;-63
2022/04/22 08:10:06;;;;;;;10.35;8.82;;;;;;;17.63;51.07;100658.41;5064658;28;20452;-63
2022/04/22 08:12:34;;;;;;;11.25;8.88;;;;;;;17.25;52.15;100640.53;5064392;28;20509;-63
2022/04/22 08:15:04;;;;;;;10.15;8.65;;;;;;;16.99;53.03;100661.09;5065585;28;20408;-62
2022/04/22 08:17:36;;;;;;;9.77;8.80;;;;;;;17.21;52.27;100648.19;5065629;28;20423;-62
2022/04/22 08:20:05;;;;;;;9.52;8.52;;;;;;;17.02;52.25;100652.63;5065229;28;20511;-62
2022/04/22 08:22:32;;;;;;;9.20;8.27;;;;;;;17.08;52.02;100642.91;5064896;28;20420;-61
2022/04/22 08:24:59;;;;;;;8.00;7.20;;;;;;;16.88;52.16;100627.75;5065747;28;20864;-61
2022/04/22 08:27:28;;;;;;;8.80;7.68;;;;;;;17.23;52.02;100635.38;5065473;28;20785;-62
2022/04/22 08:29:55;;;;;;;9.55;7.38;;;;;;;17.15;51.74;100668.63;5065596;28;20731;-61
2022/04/22 08:32:24;;;;;;;9.25;8.13;;;;;;;17.13;52.43;100649.25;5065626;28;20486;-63
2022/04/22 08:34:51;;;;;;;7.85;7.00;;;;;;;17.15;52.30;100639.16;5062226;28;20920;-62
2022/04/22 08:37:18;;;;;;;9.18;8.05;;;;;;;17.15;52.38;100635.66;5052351;28;20412;-61
2022/04/22 08:39:46;;;;;;;8.75;6.65;;;;;;;16.82;52.96;100645.47;5052007;28;20440;-64
2022/04/22 08:42:13;;;;;;;9.00;7.40;;;;;;;16.90;53.53;100643.63;5051934;28;20423;-62
2022/04/22 08:44:41;;;;;;;7.90;6.80;;;;;;;16.95;53.32;100636.59;5051848;28;20433;-61
2022/04/22 08:49:59;;;;;;;9.30;7.00;;;;;;;17.54;52.93;100631.06;5034254;28;20495;-61
2022/04/22 08:52:57;;;;;;;9.90;7.35;;;;;;;17.41;53.17;100626.59;5118181;27;20401;-61
2022/04/22 08:55:26;;;;;;;9.88;7.78;;;;;;;17.59;53.39;100615.13;5087121;28;20453;-62
2022/04/22 08:57:54;;;;;;;8.57;7.67;;;;;;;17.46;53.45;100610.72;5086698;28;20869;-61
2022/04/22 09:00:23;;;;;;;9.32;7.75;;;;;;;17.50;53.69;100608.41;5087042;28;20410;-61
2022/04/22 09:02:51;;;;;;;9.37;7.80;;;;;;;17.36;54.11;100605.84;5087012;28;20417;-61
2022/04/22 09:05:18;;;;;;;9.47;7.30;;;;;;;17.61;53.20;100580.91;5086631;28;20505;-61
2022/04/22 09:07:46;;;;;;;10.02;7.38;;;;;;;17.48;54.09;100616.66;5086622;28;20770;-61
2022/04/22 09:10:14;;;;;;;9.73;7.55;;;;;;;17.74;53.67;100607.59;5086590;28;20495;-61
2022/04/22 09:12:50;;;;;;;9.45;7.25;;;;;;;18.00;53.62;100584.28;5086683;28;20430;-62
2022/04/22 09:15:17;;;;;;;7.83;7.03;;;;;;;18.07;52.70;100585.03;5086232;28;20418;-61
2022/04/22 09:17:44;;;;;;;9.10;7.22;;;;;;;18.09;53.22;100574.88;5086271;28;20926;-62
2022/04/22 09:20:16;;;;;;;8.82;7.10;;;;;;;18.02;52.88;100578.69;5086575;28;20446;-61
2022/04/22 09:22:45;;;;;;;9.98;7.63;;;;;;;18.11;53.56;100572.81;5086250;28;20436;-61
2022/04/22 09:25:12;;;;;;;8.75;7.47;;;;;;;18.07;53.29;100565.44;5085691;28;20839;-61
2022/04/22 09:27:43;;;;;;;7.75;6.88;;;;;;;17.85;53.44;100575.75;5085723;28;20445;-61
2022/04/22 09:30:12;;;;;;;9.13;7.35;;;;;;;17.94;53.68;100574.44;5086040;28;20414;-61
2022/04/22 09:32:40;;;;;;;10.45;7.10;;;;;;;17.93;53.37;100567.44;5086347;28;20466;-61
2022/04/22 09:35:09;;;;;;;9.57;7.13;;;;;;;17.93;53.18;100570.94;5086336;28;20855;-61
2022/04/22 09:43:24;;;;;;;10.43;7.67;;;;;;;17.88;54.12;100535.09;5085960;28;20918;-61
2022/04/22 09:45:53;;;;;;;8.55;7.45;;;;;;;17.88;54.22;100548.50;5085897;28;20414;-61
2022/04/22 09:48:20;;;;;;;8.80;6.93;;;;;;;18.20;53.94;100554.53;5086129;28;20414;-61
2022/04/22 09:50:52;;;;;;;9.55;6.88;;;;;;;18.12;53.56;100560.22;5085579;28;20907;-61
2022/04/22 09:53:32;;;;;;;10.05;6.30;;;;;;;17.95;52.99;100547.41;5085805;28;20421;-62
2022/04/22 09:56:05;;;;;;;8.38;7.13;;;;;;;17.99;53.40;100550.47;5085685;28;20467;-62
2022/04/22 09:58:33;;;;;;;11.33;6.77;;;;;;;18.13;53.44;100549.28;5085546;28;20565;-61
2022/04/22 10:01:02;;;;;;;12.50;7.20;;;;;;;18.19;53.17;100544.06;5085995;28;20434;-61
2022/04/22 10:03:31;;;;;;;8.07;6.72;;;;;;;18.33;53.38;100553.59;5076133;28;20410;-61
2022/04/22 10:05:58;;;;;;;10.85;6.65;;;;;;;18.34;53.66;100549.84;5072300;28;21601;-61
2022/04/22 10:08:28;;;;;;;10.27;6.68;;;;;;;18.36;53.77;100547.75;5072270;28;20406;-61
2022/04/22 10:11:00;;;;;;;10.05;7.00;;;;;;;18.26;53.84;100550.97;5072254;28;21492;-61
2022/04/22 10:13:35;;;;;;;10.02;6.65;;;;;;;18.29;53.75;100557.75;5071879;28;20427;-62
2022/04/22 10:16:03;;;;;;;10.57;6.60;;;;;;;18.24;54.06;100545.03;5071864;28;20439;-61
2022/04/22 10:18:31;;;;;;;9.18;6.25;;;;;;;18.40;53.94;100532.00;5072069;28;20425;-62
2022/04/22 10:20:59;;;;;;;10.55;6.82;;;;;;;18.40;53.86;100540.06;5071702;28;20896;-61
2022/04/22 10:23:27;;;;;;;9.82;6.38;;;;;;;18.47;54.05;100524.69;5071920;28;20411;-62
2022/04/22 10:25:55;;;;;;;8.93;6.28;;;;;;;18.33;54.24;100522.19;5071720;28;20458;-62
2022/04/22 10:28:24;;;;;;;9.75;6.65;;;;;;;18.40;53.72;100511.38;5071632;28;20845;-61
2022/04/22 10:31:00;;;;;;;9.05;6.35;;;;;;;18.40;54.34;100522.13;5071858;28;20429;-61
2022/04/22 10:33:27;;;;;;;9.80;6.70;;;;;;;18.42;53.91;100511.13;5071815;28;20407;-61
2022/04/22 10:36:00;;;;;;;9.95;6.68;;;;;;;18.57;53.98;100502.69;5071520;28;20410;-61
2022/04/22 10:40:53;;;;;;;8.85;6.75;;;;;;;18.56;53.88;100506.41;5118295;27;20406;-64
2022/04/22 10:43:21;;;;;;;10.00;6.65;;;;;;;18.54;53.97;100509.31;5086755;28;20421;-62
2022/04/22 10:48:32;;;;;;;10.02;6.05;;;;;;;18.51;53.54;100499.88;5086693;28;20776;-62
2022/04/22 10:51:01;;;;;;;8.15;6.07;;;;;;;18.33;54.26;100502.59;5077902;28;20430;-61
2022/04/22 10:53:29;;;;;;;9.82;6.35;;;;;;;18.39;53.92;100488.25;5046684;28;20441;-62
2022/04/22 10:56:36;;;;;;;10.05;6.60;;;;;;;18.38;53.97;100489.31;5046771;28;20481;-62
2022/04/22 10:59:32;;;;;;;10.48;7.05;;;;;;;18.52;54.13;100493.44;5046671;28;20429;-62
2022/04/22 11:02:01;;;;;;;8.55;6.70;;;;;;;18.78;53.13;100491.44;5043118;28;20436;-62
2022/04/22 11:04:31;;;;;;;10.35;6.88;;;;;;;18.66;53.52;100504.81;5046661;28;20430;-62
2022/04/22 11:06:58;;;;;;;11.48;6.80;;;;;;;18.56;54.12;100482.25;5046650;28;20449;-62
2022/04/22 11:09:27;;;;;;;10.77;6.90;;;;;;;18.70;53.46;100481.81;5046215;28;20508;-64
2022/04/22 11:11:56;;;;;;;8.60;6.40;;;;;;;18.84;53.37;100479.78;5046478;28;20428;-62
2022/04/22 11:14:25;;;;;;;9.80;7.03;;;;;;;18.78;53.40;100464.59;5046448;28;20500;-63
2022/04/22 11:16:52;;;;;;;8.75;6.07;;;;;;;18.76;53.45;100465.84;5046096;28;20512;-62
2022/04/22 11:19:28;;;;;;;10.13;6.90;;;;;;;18.76;53.56;100458.59;5046294;28;20494;-62
2022/04/22 11:21:57;;;;;;;9.27;6.53;;;;;;;18.94;53.06;100446.97;5045876;28;20406;-62
2022/04/22 11:24:26;;;;;;;10.88;6.05;;;;;;;19.06;52.93;100438.94;5046009;28;20480;-62
2022/04/22 11:27:04;;;;;;;11.82;6.10;;;;;;;19.22;53.02;100442.81;5046246;28;20437;-62
2022/04/22 11:29:31;;;;;;;7.45;5.32;;;;;;;18.94;53.30;100436.25;5045864;28;20972;-62
2022/04/22 11:32:05;;;;;;;9.52;5.57;;;;;;;19.02;52.80;100427.84;5046160;28;20484;-61
2022/04/22 11:35:12;;;;;;;10.02;6.13;;;;;;;19.05;53.11;100434.63;5046089;28;20422;-62
2022/04/22 11:37:39;;;;;;;11.68;5.30;;;;;;;19.06;53.24;100415.56;5046011;28;20452;-63
2022/04/22 11:40:09;;;;;;;9.45;5.25;;;;;;;19.29;51.98;100428.19;5046028;28;20520;-62
2022/04/22 11:42:43;;;;;;;8.32;4.45;;;;;;;19.20;52.41;100429.59;5045930;28;20422;-62
2022/04/22 11:45:13;;;;;;;9.88;4.68;;;;;;;19.19;52.57;100422.59;5045554;28;20409;-61
2022/04/22 11:47:40;;;;;;;10.82;4.50;;;;;;;19.42;51.33;100394.06;5045468;28;20449;-63
2022/04/22 11:50:09;;;;;;;9.57;4.28;;;;;;;19.44;51.54;100398.13;5044551;28;20413;-62
2022/04/22 11:52:36;;;;;;;9.82;4.68;;;;;;;19.50;51.76;100393.72;5032139;28;20442;-62
2022/04/22 11:55:05;;;;;;;9.10;4.72;;;;;;;19.52;51.89;100394.28;5032411;28;20425;-62
2022/04/22 11:58:59;;;;;;;7.43;4.22;;;;;;;19.44;51.27;100387.38;5118279;27;20485;-62
2022/04/22 12:08:00;;;;;;;11.20;4.60;;;;;;;19.63;51.05;100361.16;5086857;28;20409;-62
2022/04/22 12:09:51;;;;;;;11.25;4.68;;;;;;;19.54;51.13;100365.28;5086839;28;20410;-62
2022/04/22 12:12:18;;;;;;;9.13;4.50;;;;;;;19.60;51.15;100344.69;5086727;28;20425;-62
2022/04/22 12:14:47;;;;;;;9.52;4.78;;;;;;;19.67;51.07;100321.97;5086616;28;20435;-62
2022/04/22 12:17:24;;;;;;;9.13;4.72;;;;;;;19.48;51.84;100348.25;5086463;28;20426;-62
2022/04/22 12:19:51;;;;;;;11.10;4.40;;;;;;;19.53;51.50;100299.13;5086841;28;20414;-61
2022/04/22 12:22:19;;;;;;;9.97;4.87;;;;;;;19.56;51.85;100314.78;5086805;28;20418;-62
2022/04/22 12:25:06;;;;;;;9.38;4.88;;;;;;;19.56;51.74;100295.97;5086459;28;20914;-61
2022/04/22 12:27:33;;;;;;;10.13;5.03;;;;;;;19.57;51.90;100297.59;5086308;28;20410;-62
2022/04/22 12:30:02;;;;;;;10.85;5.70;;;;;;;19.53;52.14;100299.13;5086351;28;20878;-62
2022/04/22 12:32:31;;;;;;;8.27;5.07;;;;;;;19.64;52.12;100297.44;5086262;28;20410;-62
2022/04/22 12:35:11;;;;;;;8.10;4.97;;;;;;;19.59;52.25;100276.66;5086186;28;20402;-61
2022/04/22 12:37:42;;;;;;;7.90;5.07;;;;;;;19.77;51.64;100272.16;5086381;28;20433;-61
2022/04/22 12:40:10;;;;;;;9.20;4.70;;;;;;;19.72;51.79;100288.19;5086487;28;20946;-62
2022/04/22 12:42:39;;;;;;;9.15;5.43;;;;;;;19.64;51.96;100270.56;5086370;28;20422;-62